CMA CGM Africa One — C6YR8 — position and weather

sailwx.info

Track history (hours):
 
Tides and Currents Weather Stations Pressure Air Temp Water Temp Dewpoint Dewpoint Depression Visibility Wind Speed Wind Dir Waves Ship Positions

CMA CGM Africa One

Last reported at 2018-Feb-21 22:58 UTC. Time now 2018-Feb-21 23:25 UTC.
Position N 47°18' W 002°09'.

Length 228 m; draft 11.8 m.

Type: Ship (hazmat cat A). MMSI: 311043200.

Date/timePositionNaut miles runAvg speedWind from/ knotsBaromVisibWave heightAir tempDewpointWater temp
2018-Feb-21 22:58N 47°18' W 002°09'0 0.0
2018-Feb-21 22:28N 47°18' W 002°09'0 0.0
2018-Feb-21 22:00N 47°18' W 002°09'0 0.0
2018-Feb-21 21:28N 47°18' W 002°09'0 0.0
2018-Feb-21 20:59N 47°18' W 002°09'0 0.0
2018-Feb-21 20:29N 47°18' W 002°09'0 0.0
2018-Feb-21 19:59N 47°18' W 002°09'0 0.0
2018-Feb-21 19:29N 47°18' W 002°09'0 0.0
2018-Feb-21 18:59N 47°18' W 002°09'0 0.0
2018-Feb-21 18:28N 47°18' W 002°09'0 0.0
2018-Feb-21 17:58N 47°18' W 002°09'0 0.0
2018-Feb-21 17:28N 47°18' W 002°09'0 0.0
2018-Feb-21 16:58N 47°18' W 002°09'0 0.0
2018-Feb-21 16:28N 47°18' W 002°09'0 0.0
2018-Feb-21 15:54N 47°18' W 002°09'0 0.0
2018-Feb-21 15:30N 47°18' W 002°09'0 0.0
2018-Feb-21 14:58N 47°18' W 002°09'0 0.0
2018-Feb-21 14:25N 47°18' W 002°09'0 0.0
2018-Feb-21 13:58N 47°18' W 002°09'0 0.0
2018-Feb-21 13:28N 47°18' W 002°09'0 0.0
2018-Feb-21 12:58N 47°18' W 002°09'0 0.0
2018-Feb-21 12:27N 47°18' W 002°09'0 0.0
2018-Feb-21 11:56N 47°18' W 002°09'0 0.0
2018-Feb-21 11:30N 47°18' W 002°09'0 0.1
2018-Feb-21 11:00N 47°18' W 002°09'2 4.6
2018-Feb-21 10:30N 47°16' W 002°11'611.7
2018-Feb-21 10:00N 47°12' W 002°17'510.9
2018-Feb-21 09:30N 47°07' W 002°22'5 9.4
2018-Feb-21 09:00N 47°04' W 002°27'612.0
2018-Feb-21 08:30N 47°01' W 002°35'612.5
2018-Feb-21 08:00N 46°59' W 002°43'814.0
2018-Feb-21 07:27N 47°02' W 002°54'614.6
2018-Feb-21 07:00N 47°06' W 003°02'715.1
2018-Feb-21 06:30N 47°09' W 003°11'815.2
2018-Feb-21 06:00N 47°13' W 003°21'816.6
2018-Feb-21 05:31N 47°17' W 003°32'917.4
2018-Feb-21 05:00N 47°21' W 003°43'917.1
2018-Feb-21 04:30N 47°26' W 003°53'917.3
2018-Feb-21 04:00N 47°31' W 004°04'917.3
2018-Feb-21 03:30N 47°35' W 004°15'816.9
2018-Feb-21 03:01N 47°39' W 004°26'816.8
2018-Feb-21 02:30N 47°44' W 004°37'816.7
2018-Feb-21 02:00N 47°48' W 004°47'816.5
2018-Feb-21 01:31N 47°52' W 004°58'816.9
2018-Feb-21 01:00N 47°57' W 005°08'916.9
2018-Feb-21 00:30N 48°01' W 005°19'917.7
2018-Feb-21 00:00N 48°08' W 005°27'917.7
2018-Feb-20 23:30N 48°16' W 005°35'917.7
2018-Feb-20 23:00N 48°23' W 005°43'917.8
2018-Feb-20 22:30N 48°30' W 005°50'1017.9
2018-Feb-20 21:56N 48°40' W 005°56'1217.7
2018-Feb-20 21:15N 48°51' W 005°47'2516.7
2018-Feb-20 19:44N 49°04' W 005°15'1616.2
2018-Feb-20 18:46N 49°12' W 004°55'5817.5
2018-Feb-20 15:26N 49°42' W 003°38'919.7
2018-Feb-20 14:59N 49°47' W 003°26'1019.6
2018-Feb-20 14:29N 49°52' W 003°12'919.4
2018-Feb-20 14:00N 49°56' W 002°60'1018.6
2018-Feb-20 13:29N 50°01' W 002°47'817.8
2018-Feb-20 13:01N 50°03' W 002°34'1915.6
2018-Feb-20 11:47N 50°03' W 002°04'414.6
2018-Feb-20 11:30N 50°03' W 001°58'714.2
2018-Feb-20 11:01N 50°01' W 001°47'713.2
2018-Feb-20 10:30N 49°58' W 001°38'612.6
2018-Feb-20 10:00N 49°55' W 001°29'611.3
2018-Feb-20 09:31N 49°53' W 001°22'611.2
2018-Feb-20 09:01N 49°50' W 001°14'611.9
2018-Feb-20 08:30N 49°47' W 001°06'713.6
2018-Feb-20 08:00N 49°45' W 000°56'815.0
2018-Feb-20 07:29N 49°41' W 000°46'815.8
2018-Feb-20 07:00N 49°38' W 000°34'816.3
2018-Feb-20 06:30N 49°35' W 000°23'816.0
2018-Feb-20 06:00N 49°32' W 000°11'714.5
2018-Feb-20 05:30N 49°30' W 000°01'612.7
2018-Feb-20 05:00N 49°28' E 000°08'2 3.1
2018-Feb-20 04:30N 49°27' E 000°10'0 0.0
2018-Feb-20 04:00N 49°27' E 000°10'0 0.0
2018-Feb-20 03:29N 49°27' E 000°10'0 0.0
2018-Feb-20 02:58N 49°27' E 000°10'0 0.0
2018-Feb-20 02:28N 49°27' E 000°10'0 0.0
2018-Feb-20 01:58N 49°27' E 000°10'0 0.0
2018-Feb-20 01:28N 49°27' E 000°10'0 0.0
2018-Feb-20 00:58N 49°27' E 000°10'0 0.0
2018-Feb-20 00:28N 49°27' E 000°10'0 0.0
2018-Feb-19 23:58N 49°27' E 000°10'0 0.0
2018-Feb-19 23:28N 49°27' E 000°10'0 0.0
2018-Feb-19 23:00N 49°27' E 000°10'0 0.0
2018-Feb-19 22:30N 49°27' E 000°10'0 0.0
2018-Feb-19 22:00N 49°27' E 000°10'0 0.0
2018-Feb-19 21:29N 49°27' E 000°10'0 0.0
2018-Feb-19 20:58N 49°27' E 000°10'0 0.0
2018-Feb-19 20:28N 49°27' E 000°10'0 0.0
2018-Feb-19 19:58N 49°27' E 000°10'0 0.0
2018-Feb-19 19:28N 49°27' E 000°10'0 0.0
2018-Feb-19 18:58N 49°27' E 000°10'0 0.0
2018-Feb-19 18:28N 49°27' E 000°10'0 0.0
2018-Feb-19 17:58N 49°27' E 000°10'0 0.0
2018-Feb-19 17:28N 49°27' E 000°10'0 0.0
2018-Feb-19 16:58N 49°27' E 000°10'0 0.0
2018-Feb-19 16:25N 49°27' E 000°10'0 0.0
2018-Feb-19 15:58N 49°27' E 000°10'0 0.0
2018-Feb-19 15:28N 49°27' E 000°10'0 0.0
2018-Feb-19 14:58N 49°27' E 000°10'0 0.0
2018-Feb-19 14:28N 49°27' E 000°10'0 0.0
2018-Feb-19 14:00N 49°27' E 000°10'0 0.0
2018-Feb-19 13:30N 49°27' E 000°10'0 0.0
2018-Feb-19 13:00N 49°27' E 000°10'0 0.0
2018-Feb-19 12:29N 49°27' E 000°10'0 0.0
2018-Feb-19 11:58N 49°27' E 000°10'0 0.0
2018-Feb-19 11:27N 49°27' E 000°10'0 0.0
2018-Feb-19 11:00N 49°27' E 000°10'0 0.0
2018-Feb-19 10:30N 49°27' E 000°10'0 0.0
2018-Feb-19 10:00N 49°27' E 000°10'0 0.0
2018-Feb-19 09:29N 49°27' E 000°10'0 0.0
2018-Feb-19 08:58N 49°27' E 000°10'0 0.0
2018-Feb-19 08:30N 49°27' E 000°10'0 0.0
2018-Feb-19 08:00N 49°27' E 000°10'0 0.0
2018-Feb-19 07:28N 49°27' E 000°10'0 0.0
2018-Feb-19 07:00N 49°27' E 000°10'0 0.0
2018-Feb-19 06:30N 49°27' E 000°10'0 0.0
2018-Feb-19 06:00N 49°27' E 000°10'0 0.0
2018-Feb-19 05:30N 49°27' E 000°10'0 0.0
2018-Feb-19 04:58N 49°27' E 000°10'0 0.0
2018-Feb-19 04:28N 49°27' E 000°10'0 0.0
2018-Feb-19 03:58N 49°27' E 000°10'0 0.0
2018-Feb-19 03:28N 49°27' E 000°10'0 0.0
2018-Feb-19 02:58N 49°27' E 000°10'0 0.0
2018-Feb-19 02:30N 49°27' E 000°10'0 0.0
2018-Feb-19 02:00N 49°27' E 000°10'0 0.0
2018-Feb-19 01:30N 49°27' E 000°10'0 0.0
2018-Feb-19 01:00N 49°27' E 000°10'0 0.0
2018-Feb-19 00:29N 49°27' E 000°10'0 0.0
2018-Feb-18 23:58N 49°27' E 000°10'0 0.0
2018-Feb-18 23:28N 49°27' E 000°10'0 0.0
2018-Feb-18 23:01N 49°27' E 000°10'1 1.4
2018-Feb-18 22:30N 49°27' E 000°09'3 6.1
2018-Feb-18 22:00N 49°29' E 000°05'613.0
2018-Feb-18 21:30N 49°31' W 000°04'5 9.2
2018-Feb-18 21:01N 49°33' W 000°11'2 3.5
2018-Feb-18 20:30N 49°34' W 000°10'0 0.1
2018-Feb-18 20:00N 49°34' W 000°10'0 0.0
2018-Feb-18 19:30N 49°34' W 000°10'0 0.0
2018-Feb-18 19:00N 49°34' W 000°10'0 0.0
2018-Feb-18 18:28N 49°34' W 000°10'0 0.0
2018-Feb-18 17:58N 49°34' W 000°10'0 0.0
2018-Feb-18 17:30N 49°34' W 000°10'0 0.0
2018-Feb-18 16:59N 49°34' W 000°10'0 0.0
2018-Feb-18 16:28N 49°34' W 000°10'0 0.1
2018-Feb-18 16:00N 49°34' W 000°10'0 0.1
2018-Feb-18 15:30N 49°34' W 000°10'0 0.1
2018-Feb-18 15:00N 49°34' W 000°10'0 0.1
2018-Feb-18 14:30N 49°34' W 000°10'0 0.1
2018-Feb-18 13:59N 49°34' W 000°10'0 0.1
2018-Feb-18 13:29N 49°35' W 000°10'0 0.1
2018-Feb-18 12:59N 49°35' W 000°10'0 0.1
2018-Feb-18 12:28N 49°34' W 000°10'0 0.0
2018-Feb-18 11:58N 49°34' W 000°10'0 0.0
2018-Feb-18 11:28N 49°34' W 000°09'0 0.0
2018-Feb-18 10:58N 49°34' W 000°10'0 0.0
2018-Feb-18 10:30N 49°34' W 000°10'0 0.0
2018-Feb-18 10:00N 49°34' W 000°09'0 0.0
2018-Feb-18 09:26N 49°34' W 000°09'0 0.1
2018-Feb-18 08:58N 49°34' W 000°09'0 0.0
2018-Feb-18 08:25N 49°34' W 000°09'0 0.4
2018-Feb-18 07:58N 49°34' W 000°10'0 0.3
2018-Feb-18 07:28N 49°34' W 000°10'0 0.1
2018-Feb-18 07:00N 49°34' W 000°10'0 0.0
2018-Feb-18 06:29N 49°34' W 000°10'0 0.0
2018-Feb-18 05:59N 49°34' W 000°10'0 0.0
2018-Feb-18 05:29N 49°34' W 000°10'0 0.0
2018-Feb-18 04:59N 49°34' W 000°10'0 0.0
2018-Feb-18 04:29N 49°34' W 000°10'0 0.0
2018-Feb-18 03:58N 49°34' W 000°10'0 0.0
2018-Feb-18 03:30N 49°34' W 000°10'0 0.3
2018-Feb-18 03:00N 49°34' W 000°10'3 6.8
2018-Feb-18 02:30N 49°38' W 000°11'611.7
2018-Feb-18 02:00N 49°44' W 000°10'611.5
2018-Feb-18 01:30N 49°49' W 000°10'611.5
2018-Feb-18 01:00N 49°55' W 000°10'611.6
2018-Feb-18 00:30N 50°01' W 000°10'611.4
2018-Feb-18 00:00N 50°07' W 000°10'611.2
2018-Feb-17 23:30N 50°12' W 000°11'510.4
2018-Feb-17 23:00N 50°17' W 000°08'610.4
2018-Feb-17 22:24N 50°23' W 000°06'4 9.6
2018-Feb-17 22:00N 50°27' W 000°03'5 9.5
2018-Feb-17 21:30N 50°28' E 000°03'510.0
2018-Feb-17 20:58N 50°30' E 000°12'510.5
2018-Feb-17 20:30N 50°31' E 000°19'611.3
2018-Feb-17 20:00N 50°33' E 000°27'612.1
2018-Feb-17 19:30N 50°34' E 000°36'612.8
2018-Feb-17 19:00N 50°38' E 000°45'713.3
2018-Feb-17 18:30N 50°42' E 000°54'713.5
2018-Feb-17 18:00N 50°46' E 001°02'713.2
2018-Feb-17 17:30N 50°50' E 001°11'712.8
2018-Feb-17 16:58N 50°55' E 001°18'612.2
2018-Feb-17 16:30N 50°59' E 001°24'611.3
2018-Feb-17 16:00N 51°03' E 001°30'510.0
2018-Feb-17 15:30N 51°06' E 001°36'511.0
2018-Feb-17 15:00N 51°04' E 001°45'510.0
2018-Feb-17 14:30N 51°03' E 001°52'611.2
2018-Feb-17 14:01N 51°03' E 002°01'611.6
2018-Feb-17 13:30N 51°02' E 002°10'2 2.9
2018-Feb-17 12:57N 51°00' E 002°11'0 0.0
2018-Feb-17 12:25N 51°00' E 002°11'0 0.0
2018-Feb-17 12:00N 51°00' E 002°11'0 0.0
2018-Feb-17 11:29N 51°00' E 002°11'0 0.0
2018-Feb-17 10:53N 51°00' E 002°11'0 0.0
2018-Feb-17 10:26N 51°00' E 002°11'0 0.0
2018-Feb-17 09:56N 51°00' E 002°11'0 0.0
2018-Feb-17 09:29N 51°00' E 002°11'0 0.0
2018-Feb-17 08:53N 51°00' E 002°11'0 0.0
2018-Feb-17 08:25N 51°00' E 002°11'0 0.0
2018-Feb-17 07:58N 51°00' E 002°11'0 0.0
2018-Feb-17 07:09N 51°00' E 002°11'0 0.0
2018-Feb-17 07:00N 51°00' E 002°11'0 0.0
2018-Feb-17 06:28N 51°00' E 002°11'0 0.0
2018-Feb-17 05:48N 51°00' E 002°11'0 0.0
2018-Feb-17 05:20N 51°00' E 002°11'0 0.0
2018-Feb-17 04:38N 51°00' E 002°11'0 0.0
2018-Feb-17 04:26N 51°00' E 002°11'0 0.0
2018-Feb-17 03:56N 51°00' E 002°11'0 0.0
2018-Feb-17 03:22N 51°00' E 002°11'0 0.0
2018-Feb-17 03:00N 51°00' E 002°11'0 0.0
2018-Feb-17 02:29N 51°00' E 002°11'0 0.0
2018-Feb-17 01:59N 51°00' E 002°11'0 0.0
2018-Feb-17 01:13N 51°00' E 002°11'0 0.0
2018-Feb-17 00:58N 51°00' E 002°11'0 0.0
2018-Feb-17 00:30N 51°00' E 002°11'0 0.0
2018-Feb-17 00:00N 51°00' E 002°11'0 0.0
2018-Feb-16 23:30N 51°00' E 002°11'0 0.0
2018-Feb-16 22:56N 51°00' E 002°11'0 0.0
2018-Feb-16 22:30N 51°00' E 002°11'1 2.5
2018-Feb-16 22:00N 51°02' E 002°10'4 9.2
2018-Feb-16 21:30N 51°03' E 002°03'613.0
2018-Feb-16 21:00N 51°03' E 001°53'5 9.0
2018-Feb-16 20:30N 51°03' E 001°46'611.1
2018-Feb-16 20:00N 51°08' E 001°40'611.7
2018-Feb-16 19:30N 51°12' E 001°45'713.2
2018-Feb-16 19:00N 51°18' E 001°52'612.8
2018-Feb-16 18:30N 51°23' E 001°57'4 7.6
2018-Feb-16 18:00N 51°24' E 002°03'612.2
2018-Feb-16 17:30N 51°21' E 002°11'611.4
2018-Feb-16 17:00N 51°21' E 002°21'611.7
2018-Feb-16 16:30N 51°23' E 002°29'611.4
2018-Feb-16 16:00N 51°23' E 002°39'611.3
2018-Feb-16 15:30N 51°22' E 002°48'713.3
2018-Feb-16 15:00N 51°23' E 002°58'713.2
2018-Feb-16 14:30N 51°24' E 003°08'713.6
2018-Feb-16 14:00N 51°24' E 003°19'510.9
2018-Feb-16 13:30N 51°25' E 003°28'612.0
2018-Feb-16 13:00N 51°26' E 003°37'3 6.7
2018-Feb-16 12:30N 51°28' E 003°42'1 1.0
2018-Feb-16 11:59N 51°28' E 003°42'0 0.0
2018-Feb-16 11:26N 51°28' E 003°42'0 0.0
2018-Feb-16 10:59N 51°28' E 003°42'0 0.0
2018-Feb-16 10:29N 51°28' E 003°42'0 0.0
2018-Feb-16 09:41N 51°28' E 003°42'0 0.0
2018-Feb-16 09:29N 51°28' E 003°42'0 0.0
2018-Feb-16 08:50N 51°28' E 003°42'0 0.0
2018-Feb-16 08:11N 51°28' E 003°42'0 0.0
2018-Feb-16 07:59N 51°28' E 003°42'0 0.0
2018-Feb-16 07:29N 51°28' E 003°42'0 0.0
2018-Feb-16 06:51N 51°28' E 003°42'0 0.0
2018-Feb-16 06:15N 51°28' E 003°42'0 0.0
2018-Feb-16 06:00N 51°28' E 003°42'0 0.0
2018-Feb-16 05:27N 51°28' E 003°42'0 0.0
2018-Feb-16 04:45N 51°28' E 003°42'0 0.0
2018-Feb-16 04:27N 51°28' E 003°42'0 0.0
2018-Feb-16 03:57N 51°28' E 003°42'0 0.0
2018-Feb-16 03:27N 51°28' E 003°42'0 0.0
2018-Feb-16 02:57N 51°28' E 003°42'0 0.0
2018-Feb-16 02:30N 51°28' E 003°42'0 0.0
2018-Feb-16 02:00N 51°28' E 003°42'0 0.0
2018-Feb-16 01:30N 51°28' E 003°42'0 0.0
2018-Feb-16 01:00N 51°28' E 003°42'0 0.0
2018-Feb-16 00:24N 51°28' E 003°42'0 0.0
2018-Feb-15 23:57N 51°28' E 003°42'0 0.0
2018-Feb-15 23:27N 51°28' E 003°42'0 0.0
2018-Feb-15 23:00N 51°28' E 003°42'0 0.0
2018-Feb-15 22:27N 51°28' E 003°42'0 0.0
2018-Feb-15 21:57N 51°28' E 003°42'0 0.0
2018-Feb-15 21:27N 51°28' E 003°42'0 0.0
2018-Feb-15 20:45N 51°28' E 003°42'0 0.0
2018-Feb-15 20:27N 51°28' E 003°42'0 0.0
2018-Feb-15 20:00N 51°28' E 003°42'0 0.0
2018-Feb-15 19:21N 51°28' E 003°42'0 0.0
2018-Feb-15 19:00N 51°28' E 003°42'0 0.0
2018-Feb-15 18:30N 51°28' E 003°42'0 0.0
2018-Feb-15 17:54N 51°28' E 003°42'0 0.0
2018-Feb-15 17:30N 51°28' E 003°42'0 0.0
2018-Feb-15 16:45N 51°28' E 003°42'0 0.0
2018-Feb-15 16:30N 51°28' E 003°42'0 0.0
2018-Feb-15 15:39N 51°28' E 003°42'0 0.0
2018-Feb-15 15:30N 51°28' E 003°42'0 0.0
2018-Feb-15 14:57N 51°28' E 003°42'0 0.0
2018-Feb-15 14:30N 51°28' E 003°42'0 0.0
2018-Feb-15 14:00N 51°28' E 003°42'0 0.0
2018-Feb-15 13:24N 51°28' E 003°42'0 0.0
2018-Feb-15 12:48N 51°28' E 003°42'0 0.0
2018-Feb-15 12:27N 51°28' E 003°42'0 0.0
2018-Feb-15 11:57N 51°28' E 003°42'0 0.0
2018-Feb-15 10:36N 51°28' E 003°42'0 0.0
2018-Feb-15 10:27N 51°28' E 003°42'0 0.0
2018-Feb-15 09:43N 51°28' E 003°42'0 0.0
2018-Feb-15 09:26N 51°28' E 003°42'0 0.0
2018-Feb-15 08:50N 51°28' E 003°42'0 0.0
2018-Feb-15 08:30N 51°28' E 003°42'1 1.0
2018-Feb-15 08:00N 51°28' E 003°42'2 4.7
2018-Feb-15 07:30N 51°26' E 003°42'612.5
2018-Feb-15 07:00N 51°21' E 003°48'714.1
2018-Feb-15 06:30N 51°25' E 003°58'510.5
2018-Feb-15 06:01N 51°22' E 004°05'510.6
2018-Feb-15 05:29N 51°22' E 004°14'2 4.2
2018-Feb-15 05:01N 51°21' E 004°16'0 0.0
2018-Feb-15 04:30N 51°21' E 004°16'0 0.0
2018-Feb-15 04:01N 51°21' E 004°16'0 0.0
2018-Feb-15 03:30N 51°21' E 004°16'0 0.0
2018-Feb-15 02:53N 51°21' E 004°16'0 0.0
2018-Feb-15 02:28N 51°21' E 004°16'0 0.0
2018-Feb-15 01:55N 51°21' E 004°16'0 0.0
2018-Feb-15 01:26N 51°21' E 004°16'0 0.0
2018-Feb-15 00:59N 51°21' E 004°16'0 0.0
2018-Feb-15 00:29N 51°21' E 004°16'0 0.0
2018-Feb-14 23:56N 51°21' E 004°16'0 0.0
2018-Feb-14 23:14N 51°21' E 004°16'0 0.0
2018-Feb-14 22:56N 51°21' E 004°16'0 0.0
2018-Feb-14 22:20N 51°21' E 004°16'0 0.0
2018-Feb-14 21:47N 51°21' E 004°16'0 0.0
2018-Feb-14 21:30N 51°21' E 004°16'0 0.0
2018-Feb-14 21:01N 51°21' E 004°16'0 0.0
2018-Feb-14 20:30N 51°21' E 004°16'0 0.0
2018-Feb-14 19:58N 51°21' E 004°16'0 0.0
2018-Feb-14 19:29N 51°21' E 004°16'0 0.0
2018-Feb-14 19:00N 51°21' E 004°16'0 0.0
2018-Feb-14 18:27N 51°21' E 004°16'0 0.0
2018-Feb-14 17:59N 51°21' E 004°16'0 0.0
2018-Feb-14 17:25N 51°21' E 004°16'0 0.0
2018-Feb-14 17:00N 51°21' E 004°16'0 0.0
2018-Feb-14 16:27N 51°21' E 004°16'0 0.0
2018-Feb-14 16:00N 51°21' E 004°16'0 0.0
2018-Feb-14 15:27N 51°21' E 004°16'0 0.0
2018-Feb-14 14:59N 51°21' E 004°16'0 0.0
2018-Feb-14 14:30N 51°21' E 004°16'0 0.0
2018-Feb-14 13:59N 51°21' E 004°16'0 0.0
2018-Feb-14 13:27N 51°21' E 004°16'0 0.0
2018-Feb-14 12:59N 51°21' E 004°16'0 0.0
2018-Feb-14 12:29N 51°21' E 004°16'0 0.0
2018-Feb-14 11:53N 51°21' E 004°16'0 0.0
2018-Feb-14 11:28N 51°21' E 004°16'0 0.0
2018-Feb-14 10:55N 51°21' E 004°16'0 0.0
2018-Feb-14 10:30N 51°21' E 004°16'0 0.0
2018-Feb-14 09:59N 51°21' E 004°16'0 0.0
2018-Feb-14 09:31N 51°21' E 004°16'0 0.0
2018-Feb-14 09:01N 51°21' E 004°16'0 0.0
2018-Feb-14 08:29N 51°21' E 004°16'0 0.0
2018-Feb-14 08:01N 51°21' E 004°16'0 0.0
2018-Feb-14 07:29N 51°21' E 004°16'0 0.0
2018-Feb-14 07:01N 51°21' E 004°16'0 0.0
2018-Feb-14 06:29N 51°21' E 004°16'0 0.0
2018-Feb-14 05:59N 51°21' E 004°16'0 0.0
2018-Feb-14 05:26N 51°21' E 004°16'0 0.0
2018-Feb-14 04:56N 51°21' E 004°16'0 0.0
2018-Feb-14 04:28N 51°21' E 004°16'0 0.0
2018-Feb-14 04:01N 51°21' E 004°16'0 0.0
2018-Feb-14 03:29N 51°21' E 004°16'0 0.0
2018-Feb-14 03:01N 51°21' E 004°16'0 0.0
2018-Feb-14 02:31N 51°21' E 004°16'0 0.0
2018-Feb-14 01:58N 51°21' E 004°16'0 0.5
2018-Feb-14 01:30N 51°21' E 004°16'2 3.6
2018-Feb-14 01:00N 51°22' E 004°14'4 8.2
2018-Feb-14 00:31N 51°22' E 004°07'611.3
2018-Feb-14 00:00N 51°26' E 004°00'713.6
2018-Feb-13 23:30N 51°21' E 003°53'713.4
2018-Feb-13 23:00N 51°23' E 003°43'510.0
2018-Feb-13 22:30N 51°25' E 003°36'510.9
2018-Feb-13 22:00N 51°25' E 003°27'713.3
2018-Feb-13 21:30N 51°24' E 003°16'714.8
2018-Feb-13 21:00N 51°24' E 003°05'714.0
2018-Feb-13 20:30N 51°22' E 002°54'612.3
2018-Feb-13 20:00N 51°21' E 002°44'510.2
2018-Feb-13 19:30N 51°22' E 002°36'5 9.8
2018-Feb-13 19:00N 51°21' E 002°28'510.0
2018-Feb-13 18:30N 51°20' E 002°20'510.5
2018-Feb-13 18:00N 51°19' E 002°12'4 8.7
2018-Feb-13 17:30N 51°20' E 002°05'4 8.6
2018-Feb-13 17:00N 51°23' E 002°00'5 9.9
2018-Feb-13 16:30N 51°27' E 001°55'5 9.8
2018-Feb-13 16:00N 51°31' E 001°51'3 6.3
2018-Feb-13 15:30N 51°32' E 001°46'2 3.2
2018-Feb-13 15:00N 51°31' E 001°43'3 6.4
2018-Feb-13 14:30N 51°32' E 001°48'3 6.2
2018-Feb-13 14:00N 51°33' E 001°53'3 5.4
2018-Feb-13 13:30N 51°34' E 001°57'1 2.6
2018-Feb-13 13:00N 51°34' E 001°59'5 9.7
2018-Feb-13 12:30N 51°32' E 001°52'5 9.7
2018-Feb-13 12:00N 51°31' E 001°44'5 9.4
2018-Feb-13 11:30N 51°29' E 001°37'4 9.0
2018-Feb-13 11:00N 51°27' E 001°31'3 5.8
2018-Feb-13 10:30N 51°28' E 001°26'5 9.3
2018-Feb-13 10:00N 51°29' E 001°19'5 9.3
2018-Feb-13 09:30N 51°29' E 001°11'5 9.6
2018-Feb-13 09:00N 51°30' E 001°04'611.3
2018-Feb-13 08:30N 51°29' E 000°55'713.2
2018-Feb-13 08:00N 51°30' E 000°44'612.7
2018-Feb-13 07:30N 51°30' E 000°34'5 9.2
2018-Feb-13 07:01N 51°29' E 000°27'4 8.9
2018-Feb-13 06:31N 51°27' E 000°21'1 1.3
2018-Feb-13 06:00N 51°28' E 000°20'0 0.0
2018-Feb-13 05:30N 51°28' E 000°20'0 0.0
2018-Feb-13 05:00N 51°28' E 000°20'0 0.0
2018-Feb-13 04:30N 51°28' E 000°20'0 0.0
2018-Feb-13 04:00N 51°28' E 000°20'0 0.0
2018-Feb-13 03:31N 51°28' E 000°20'0 0.0
2018-Feb-13 03:00N 51°28' E 000°20'0 0.0
2018-Feb-13 02:30N 51°28' E 000°20'0 0.0
2018-Feb-13 02:00N 51°28' E 000°20'0 0.0
2018-Feb-13 01:30N 51°28' E 000°20'0 0.0
2018-Feb-13 01:00N 51°28' E 000°20'0 0.0
2018-Feb-13 00:30N 51°28' E 000°20'0 0.0
2018-Feb-13 00:00N 51°28' E 000°20'0 0.0
2018-Feb-12 23:31N 51°28' E 000°20'0 0.0
2018-Feb-12 23:00N 51°28' E 000°20'0 0.0
2018-Feb-12 22:31N 51°28' E 000°20'0 0.0
2018-Feb-12 22:00N 51°28' E 000°20'0 0.0
2018-Feb-12 21:30N 51°28' E 000°20'0 0.0
2018-Feb-12 21:00N 51°28' E 000°20'0 0.5
2018-Feb-12 20:31N 51°27' E 000°20'4 7.7
2018-Feb-12 20:00N 51°27' E 000°26'510.1
2018-Feb-12 19:30N 51°30' E 000°33'714.0
2018-Feb-12 19:00N 51°30' E 000°44'815.7
2018-Feb-12 18:30N 51°29' E 000°56'612.6
2018-Feb-12 18:00N 51°30' E 001°06'510.5
2018-Feb-12 17:30N 51°29' E 001°15'611.4
2018-Feb-12 17:00N 51°29' E 001°24'4 8.3
2018-Feb-12 16:30N 51°29' E 001°31'3 5.9
2018-Feb-12 16:00N 51°26' E 001°31'2 4.7
2018-Feb-12 15:30N 51°24' E 001°33'2 3.1
2018-Feb-12 15:00N 51°23' E 001°35'3 5.2
2018-Feb-12 14:30N 51°20' E 001°36'3 5.8
2018-Feb-12 14:00N 51°18' E 001°38'2 4.4
2018-Feb-12 13:30N 51°16' E 001°39'2 4.9
2018-Feb-12 13:00N 51°18' E 001°38'2 4.6
2018-Feb-12 12:31N 51°16' E 001°39'3 5.9
2018-Feb-12 12:01N 51°13' E 001°40'4 7.1
2018-Feb-12 11:31N 51°10' E 001°37'3 6.3
2018-Feb-12 11:01N 51°07' E 001°39'611.0
2018-Feb-12 10:30N 51°04' E 001°46'4 7.0
2018-Feb-12 10:00N 51°03' E 001°51'510.5
2018-Feb-12 09:30N 51°03' E 001°59'712.8
2018-Feb-12 09:00N 51°03' E 002°10'2 2.3
2018-Feb-12 08:04N 51°00' E 002°11'0 0.0
2018-Feb-12 08:00N 51°00' E 002°11'0 0.0
2018-Feb-12 07:30N 51°00' E 002°11'0 0.0
2018-Feb-12 06:57N 51°00' E 002°11'0 0.0
2018-Feb-12 06:30N 51°00' E 002°11'0 0.0
2018-Feb-12 05:58N 51°00' E 002°11'0 0.0
2018-Feb-12 05:28N 51°00' E 002°11'0 0.0
2018-Feb-12 04:55N 51°00' E 002°11'0 0.0
2018-Feb-12 04:21N 51°00' E 002°11'0 0.0
2018-Feb-12 04:00N 51°00' E 002°11'0 0.0
2018-Feb-12 03:29N 51°00' E 002°11'0 0.0
2018-Feb-12 03:01N 51°00' E 002°11'0 0.0
2018-Feb-12 02:27N 51°00' E 002°11'0 0.0
2018-Feb-12 02:00N 51°00' E 002°11'0 0.0
2018-Feb-12 01:30N 51°00' E 002°11'0 0.0
2018-Feb-12 01:00N 51°00' E 002°11'0 0.0
2018-Feb-12 00:30N 51°00' E 002°11'0 0.0
2018-Feb-11 23:51N 51°00' E 002°11'0 0.0
2018-Feb-11 23:30N 51°00' E 002°11'0 0.0
2018-Feb-11 22:59N 51°00' E 002°11'  
Track history (hours):
 
Tides and Currents Weather Stations Pressure Air Temp Water Temp Dewpoint Dewpoint Depression Visibility Wind Speed Wind Dir Waves Ship Positions

CMA CGM Africa One

Last reported at 2018-Feb-21 22:58 UTC. Time now 2018-Feb-21 23:25 UTC.
Position N 47°18' W 002°09'.

Length 228 m; draft 11.8 m.

Type: Ship (hazmat cat A). MMSI: 311043200.

Date/timePositionNaut miles runAvg speedWind from/ knotsBaromVisibWave heightAir tempDewpointWater temp
2018-Feb-21 22:58N 47°18' W 002°09'0 0.0
2018-Feb-21 22:28N 47°18' W 002°09'0 0.0
2018-Feb-21 22:00N 47°18' W 002°09'0 0.0
2018-Feb-21 21:28N 47°18' W 002°09'0 0.0
2018-Feb-21 20:59N 47°18' W 002°09'0 0.0
2018-Feb-21 20:29N 47°18' W 002°09'0 0.0
2018-Feb-21 19:59N 47°18' W 002°09'0 0.0
2018-Feb-21 19:29N 47°18' W 002°09'0 0.0
2018-Feb-21 18:59N 47°18' W 002°09'0 0.0
2018-Feb-21 18:28N 47°18' W 002°09'0 0.0
2018-Feb-21 17:58N 47°18' W 002°09'0 0.0
2018-Feb-21 17:28N 47°18' W 002°09'0 0.0
2018-Feb-21 16:58N 47°18' W 002°09'0 0.0
2018-Feb-21 16:28N 47°18' W 002°09'0 0.0
2018-Feb-21 15:54N 47°18' W 002°09'0 0.0
2018-Feb-21 15:30N 47°18' W 002°09'0 0.0
2018-Feb-21 14:58N 47°18' W 002°09'0 0.0
2018-Feb-21 14:25N 47°18' W 002°09'0 0.0
2018-Feb-21 13:58N 47°18' W 002°09'0 0.0
2018-Feb-21 13:28N 47°18' W 002°09'0 0.0
2018-Feb-21 12:58N 47°18' W 002°09'0 0.0
2018-Feb-21 12:27N 47°18' W 002°09'0 0.0
2018-Feb-21 11:56N 47°18' W 002°09'0 0.0
2018-Feb-21 11:30N 47°18' W 002°09'0 0.1
2018-Feb-21 11:00N 47°18' W 002°09'2 4.6
2018-Feb-21 10:30N 47°16' W 002°11'611.7
2018-Feb-21 10:00N 47°12' W 002°17'510.9
2018-Feb-21 09:30N 47°07' W 002°22'5 9.4
2018-Feb-21 09:00N 47°04' W 002°27'612.0
2018-Feb-21 08:30N 47°01' W 002°35'612.5
2018-Feb-21 08:00N 46°59' W 002°43'814.0
2018-Feb-21 07:27N 47°02' W 002°54'614.6
2018-Feb-21 07:00N 47°06' W 003°02'715.1
2018-Feb-21 06:30N 47°09' W 003°11'815.2
2018-Feb-21 06:00N 47°13' W 003°21'816.6
2018-Feb-21 05:31N 47°17' W 003°32'917.4
2018-Feb-21 05:00N 47°21' W 003°43'917.1
2018-Feb-21 04:30N 47°26' W 003°53'917.3
2018-Feb-21 04:00N 47°31' W 004°04'917.3
2018-Feb-21 03:30N 47°35' W 004°15'816.9
2018-Feb-21 03:01N 47°39' W 004°26'816.8
2018-Feb-21 02:30N 47°44' W 004°37'816.7
2018-Feb-21 02:00N 47°48' W 004°47'816.5
2018-Feb-21 01:31N 47°52' W 004°58'816.9
2018-Feb-21 01:00N 47°57' W 005°08'916.9
2018-Feb-21 00:30N 48°01' W 005°19'917.7
2018-Feb-21 00:00N 48°08' W 005°27'917.7
2018-Feb-20 23:30N 48°16' W 005°35'917.7
2018-Feb-20 23:00N 48°23' W 005°43'917.8
2018-Feb-20 22:30N 48°30' W 005°50'1017.9
2018-Feb-20 21:56N 48°40' W 005°56'1217.7
2018-Feb-20 21:15N 48°51' W 005°47'2516.7
2018-Feb-20 19:44N 49°04' W 005°15'1616.2
2018-Feb-20 18:46N 49°12' W 004°55'5817.5
2018-Feb-20 15:26N 49°42' W 003°38'919.7
2018-Feb-20 14:59N 49°47' W 003°26'1019.6
2018-Feb-20 14:29N 49°52' W 003°12'919.4
2018-Feb-20 14:00N 49°56' W 002°60'1018.6
2018-Feb-20 13:29N 50°01' W 002°47'817.8
2018-Feb-20 13:01N 50°03' W 002°34'1915.6
2018-Feb-20 11:47N 50°03' W 002°04'414.6
2018-Feb-20 11:30N 50°03' W 001°58'714.2
2018-Feb-20 11:01N 50°01' W 001°47'713.2
2018-Feb-20 10:30N 49°58' W 001°38'612.6
2018-Feb-20 10:00N 49°55' W 001°29'611.3
2018-Feb-20 09:31N 49°53' W 001°22'611.2
2018-Feb-20 09:01N 49°50' W 001°14'611.9
2018-Feb-20 08:30N 49°47' W 001°06'713.6
2018-Feb-20 08:00N 49°45' W 000°56'815.0
2018-Feb-20 07:29N 49°41' W 000°46'815.8
2018-Feb-20 07:00N 49°38' W 000°34'816.3
2018-Feb-20 06:30N 49°35' W 000°23'816.0
2018-Feb-20 06:00N 49°32' W 000°11'714.5
2018-Feb-20 05:30N 49°30' W 000°01'612.7
2018-Feb-20 05:00N 49°28' E 000°08'2 3.1
2018-Feb-20 04:30N 49°27' E 000°10'0 0.0
2018-Feb-20 04:00N 49°27' E 000°10'0 0.0
2018-Feb-20 03:29N 49°27' E 000°10'0 0.0
2018-Feb-20 02:58N 49°27' E 000°10'0 0.0
2018-Feb-20 02:28N 49°27' E 000°10'0 0.0
2018-Feb-20 01:58N 49°27' E 000°10'0 0.0
2018-Feb-20 01:28N 49°27' E 000°10'0 0.0
2018-Feb-20 00:58N 49°27' E 000°10'0 0.0
2018-Feb-20 00:28N 49°27' E 000°10'0 0.0
2018-Feb-19 23:58N 49°27' E 000°10'0 0.0
2018-Feb-19 23:28N 49°27' E 000°10'0 0.0
2018-Feb-19 23:00N 49°27' E 000°10'0 0.0
2018-Feb-19 22:30N 49°27' E 000°10'0 0.0
2018-Feb-19 22:00N 49°27' E 000°10'0 0.0
2018-Feb-19 21:29N 49°27' E 000°10'0 0.0
2018-Feb-19 20:58N 49°27' E 000°10'0 0.0
2018-Feb-19 20:28N 49°27' E 000°10'0 0.0
2018-Feb-19 19:58N 49°27' E 000°10'0 0.0
2018-Feb-19 19:28N 49°27' E 000°10'0 0.0
2018-Feb-19 18:58N 49°27' E 000°10'0 0.0
2018-Feb-19 18:28N 49°27' E 000°10'0 0.0
2018-Feb-19 17:58N 49°27' E 000°10'0 0.0
2018-Feb-19 17:28N 49°27' E 000°10'0 0.0
2018-Feb-19 16:58N 49°27' E 000°10'0 0.0
2018-Feb-19 16:25N 49°27' E 000°10'0 0.0
2018-Feb-19 15:58N 49°27' E 000°10'0 0.0
2018-Feb-19 15:28N 49°27' E 000°10'0 0.0
2018-Feb-19 14:58N 49°27' E 000°10'0 0.0
2018-Feb-19 14:28N 49°27' E 000°10'0 0.0
2018-Feb-19 14:00N 49°27' E 000°10'0 0.0
2018-Feb-19 13:30N 49°27' E 000°10'0 0.0
2018-Feb-19 13:00N 49°27' E 000°10'0 0.0
2018-Feb-19 12:29N 49°27' E 000°10'0 0.0
2018-Feb-19 11:58N 49°27' E 000°10'0 0.0
2018-Feb-19 11:27N 49°27' E 000°10'0 0.0
2018-Feb-19 11:00N 49°27' E 000°10'0 0.0
2018-Feb-19 10:30N 49°27' E 000°10'0 0.0
2018-Feb-19 10:00N 49°27' E 000°10'0 0.0
2018-Feb-19 09:29N 49°27' E 000°10'0 0.0
2018-Feb-19 08:58N 49°27' E 000°10'0 0.0
2018-Feb-19 08:30N 49°27' E 000°10'0 0.0
2018-Feb-19 08:00N 49°27' E 000°10'0 0.0
2018-Feb-19 07:28N 49°27' E 000°10'0 0.0
2018-Feb-19 07:00N 49°27' E 000°10'0 0.0
2018-Feb-19 06:30N 49°27' E 000°10'0 0.0
2018-Feb-19 06:00N 49°27' E 000°10'0 0.0
2018-Feb-19 05:30N 49°27' E 000°10'0 0.0
2018-Feb-19 04:58N 49°27' E 000°10'0 0.0
2018-Feb-19 04:28N 49°27' E 000°10'0 0.0
2018-Feb-19 03:58N 49°27' E 000°10'0 0.0
2018-Feb-19 03:28N 49°27' E 000°10'0 0.0
2018-Feb-19 02:58N 49°27' E 000°10'0 0.0
2018-Feb-19 02:30N 49°27' E 000°10'0 0.0
2018-Feb-19 02:00N 49°27' E 000°10'0 0.0
2018-Feb-19 01:30N 49°27' E 000°10'0 0.0
2018-Feb-19 01:00N 49°27' E 000°10'0 0.0
2018-Feb-19 00:29N 49°27' E 000°10'0 0.0
2018-Feb-18 23:58N 49°27' E 000°10'0 0.0
2018-Feb-18 23:28N 49°27' E 000°10'0 0.0
2018-Feb-18 23:01N 49°27' E 000°10'1 1.4
2018-Feb-18 22:30N 49°27' E 000°09'3 6.1
2018-Feb-18 22:00N 49°29' E 000°05'613.0
2018-Feb-18 21:30N 49°31' W 000°04'5 9.2
2018-Feb-18 21:01N 49°33' W 000°11'2 3.5
2018-Feb-18 20:30N 49°34' W 000°10'0 0.1
2018-Feb-18 20:00N 49°34' W 000°10'0 0.0
2018-Feb-18 19:30N 49°34' W 000°10'0 0.0
2018-Feb-18 19:00N 49°34' W 000°10'0 0.0
2018-Feb-18 18:28N 49°34' W 000°10'0 0.0
2018-Feb-18 17:58N 49°34' W 000°10'0 0.0
2018-Feb-18 17:30N 49°34' W 000°10'0 0.0
2018-Feb-18 16:59N 49°34' W 000°10'0 0.0
2018-Feb-18 16:28N 49°34' W 000°10'0 0.1
2018-Feb-18 16:00N 49°34' W 000°10'0 0.1
2018-Feb-18 15:30N 49°34' W 000°10'0 0.1
2018-Feb-18 15:00N 49°34' W 000°10'0 0.1
2018-Feb-18 14:30N 49°34' W 000°10'0 0.1
2018-Feb-18 13:59N 49°34' W 000°10'0 0.1
2018-Feb-18 13:29N 49°35' W 000°10'0 0.1
2018-Feb-18 12:59N 49°35' W 000°10'0 0.1
2018-Feb-18 12:28N 49°34' W 000°10'0 0.0
2018-Feb-18 11:58N 49°34' W 000°10'0 0.0
2018-Feb-18 11:28N 49°34' W 000°09'0 0.0
2018-Feb-18 10:58N 49°34' W 000°10'0 0.0
2018-Feb-18 10:30N 49°34' W 000°10'0 0.0
2018-Feb-18 10:00N 49°34' W 000°09'0 0.0
2018-Feb-18 09:26N 49°34' W 000°09'0 0.1
2018-Feb-18 08:58N 49°34' W 000°09'0 0.0
2018-Feb-18 08:25N 49°34' W 000°09'0 0.4
2018-Feb-18 07:58N 49°34' W 000°10'0 0.3
2018-Feb-18 07:28N 49°34' W 000°10'0 0.1
2018-Feb-18 07:00N 49°34' W 000°10'0 0.0
2018-Feb-18 06:29N 49°34' W 000°10'0 0.0
2018-Feb-18 05:59N 49°34' W 000°10'0 0.0
2018-Feb-18 05:29N 49°34' W 000°10'0 0.0
2018-Feb-18 04:59N 49°34' W 000°10'0 0.0
2018-Feb-18 04:29N 49°34' W 000°10'0 0.0
2018-Feb-18 03:58N 49°34' W 000°10'0 0.0
2018-Feb-18 03:30N 49°34' W 000°10'0 0.3
2018-Feb-18 03:00N 49°34' W 000°10'3 6.8
2018-Feb-18 02:30N 49°38' W 000°11'611.7
2018-Feb-18 02:00N 49°44' W 000°10'611.5
2018-Feb-18 01:30N 49°49' W 000°10'611.5
2018-Feb-18 01:00N 49°55' W 000°10'611.6
2018-Feb-18 00:30N 50°01' W 000°10'611.4
2018-Feb-18 00:00N 50°07' W 000°10'611.2
2018-Feb-17 23:30N 50°12' W 000°11'510.4
2018-Feb-17 23:00N 50°17' W 000°08'610.4
2018-Feb-17 22:24N 50°23' W 000°06'4 9.6
2018-Feb-17 22:00N 50°27' W 000°03'5 9.5
2018-Feb-17 21:30N 50°28' E 000°03'510.0
2018-Feb-17 20:58N 50°30' E 000°12'510.5
2018-Feb-17 20:30N 50°31' E 000°19'611.3
2018-Feb-17 20:00N 50°33' E 000°27'612.1
2018-Feb-17 19:30N 50°34' E 000°36'612.8
2018-Feb-17 19:00N 50°38' E 000°45'713.3
2018-Feb-17 18:30N 50°42' E 000°54'713.5
2018-Feb-17 18:00N 50°46' E 001°02'713.2
2018-Feb-17 17:30N 50°50' E 001°11'712.8
2018-Feb-17 16:58N 50°55' E 001°18'612.2
2018-Feb-17 16:30N 50°59' E 001°24'611.3
2018-Feb-17 16:00N 51°03' E 001°30'510.0
2018-Feb-17 15:30N 51°06' E 001°36'511.0
2018-Feb-17 15:00N 51°04' E 001°45'510.0
2018-Feb-17 14:30N 51°03' E 001°52'611.2
2018-Feb-17 14:01N 51°03' E 002°01'611.6
2018-Feb-17 13:30N 51°02' E 002°10'2 2.9
2018-Feb-17 12:57N 51°00' E 002°11'0 0.0
2018-Feb-17 12:25N 51°00' E 002°11'0 0.0
2018-Feb-17 12:00N 51°00' E 002°11'0 0.0
2018-Feb-17 11:29N 51°00' E 002°11'0 0.0
2018-Feb-17 10:53N 51°00' E 002°11'0 0.0
2018-Feb-17 10:26N 51°00' E 002°11'0 0.0
2018-Feb-17 09:56N 51°00' E 002°11'0 0.0
2018-Feb-17 09:29N 51°00' E 002°11'0 0.0
2018-Feb-17 08:53N 51°00' E 002°11'0 0.0
2018-Feb-17 08:25N 51°00' E 002°11'0 0.0
2018-Feb-17 07:58N 51°00' E 002°11'0 0.0
2018-Feb-17 07:09N 51°00' E 002°11'0 0.0
2018-Feb-17 07:00N 51°00' E 002°11'0 0.0
2018-Feb-17 06:28N 51°00' E 002°11'0 0.0
2018-Feb-17 05:48N 51°00' E 002°11'0 0.0
2018-Feb-17 05:20N 51°00' E 002°11'0 0.0
2018-Feb-17 04:38N 51°00' E 002°11'0 0.0
2018-Feb-17 04:26N 51°00' E 002°11'0 0.0
2018-Feb-17 03:56N 51°00' E 002°11'0 0.0
2018-Feb-17 03:22N 51°00' E 002°11'0 0.0
2018-Feb-17 03:00N 51°00' E 002°11'0 0.0
2018-Feb-17 02:29N 51°00' E 002°11'0 0.0
2018-Feb-17 01:59N 51°00' E 002°11'0 0.0
2018-Feb-17 01:13N 51°00' E 002°11'0 0.0
2018-Feb-17 00:58N 51°00' E 002°11'0 0.0
2018-Feb-17 00:30N 51°00' E 002°11'0 0.0
2018-Feb-17 00:00N 51°00' E 002°11'0 0.0
2018-Feb-16 23:30N 51°00' E 002°11'0 0.0
2018-Feb-16 22:56N 51°00' E 002°11'0 0.0
2018-Feb-16 22:30N 51°00' E 002°11'1 2.5
2018-Feb-16 22:00N 51°02' E 002°10'4 9.2
2018-Feb-16 21:30N 51°03' E 002°03'613.0
2018-Feb-16 21:00N 51°03' E 001°53'5 9.0
2018-Feb-16 20:30N 51°03' E 001°46'611.1
2018-Feb-16 20:00N 51°08' E 001°40'611.7
2018-Feb-16 19:30N 51°12' E 001°45'713.2
2018-Feb-16 19:00N 51°18' E 001°52'612.8
2018-Feb-16 18:30N 51°23' E 001°57'4 7.6
2018-Feb-16 18:00N 51°24' E 002°03'612.2
2018-Feb-16 17:30N 51°21' E 002°11'611.4
2018-Feb-16 17:00N 51°21' E 002°21'611.7
2018-Feb-16 16:30N 51°23' E 002°29'611.4
2018-Feb-16 16:00N 51°23' E 002°39'611.3
2018-Feb-16 15:30N 51°22' E 002°48'713.3
2018-Feb-16 15:00N 51°23' E 002°58'713.2
2018-Feb-16 14:30N 51°24' E 003°08'713.6
2018-Feb-16 14:00N 51°24' E 003°19'510.9
2018-Feb-16 13:30N 51°25' E 003°28'612.0
2018-Feb-16 13:00N 51°26' E 003°37'3 6.7
2018-Feb-16 12:30N 51°28' E 003°42'1 1.0
2018-Feb-16 11:59N 51°28' E 003°42'0 0.0
2018-Feb-16 11:26N 51°28' E 003°42'0 0.0
2018-Feb-16 10:59N 51°28' E 003°42'0 0.0
2018-Feb-16 10:29N 51°28' E 003°42'0 0.0
2018-Feb-16 09:41N 51°28' E 003°42'0 0.0
2018-Feb-16 09:29N 51°28' E 003°42'0 0.0
2018-Feb-16 08:50N 51°28' E 003°42'0 0.0
2018-Feb-16 08:11N 51°28' E 003°42'0 0.0
2018-Feb-16 07:59N 51°28' E 003°42'0 0.0
2018-Feb-16 07:29N 51°28' E 003°42'0 0.0
2018-Feb-16 06:51N 51°28' E 003°42'0 0.0
2018-Feb-16 06:15N 51°28' E 003°42'0 0.0
2018-Feb-16 06:00N 51°28' E 003°42'0 0.0
2018-Feb-16 05:27N 51°28' E 003°42'0 0.0
2018-Feb-16 04:45N 51°28' E 003°42'0 0.0
2018-Feb-16 04:27N 51°28' E 003°42'0 0.0
2018-Feb-16 03:57N 51°28' E 003°42'0 0.0
2018-Feb-16 03:27N 51°28' E 003°42'0 0.0
2018-Feb-16 02:57N 51°28' E 003°42'0 0.0
2018-Feb-16 02:30N 51°28' E 003°42'0 0.0
2018-Feb-16 02:00N 51°28' E 003°42'0 0.0
2018-Feb-16 01:30N 51°28' E 003°42'0 0.0
2018-Feb-16 01:00N 51°28' E 003°42'0 0.0
2018-Feb-16 00:24N 51°28' E 003°42'0 0.0
2018-Feb-15 23:57N 51°28' E 003°42'0 0.0
2018-Feb-15 23:27N 51°28' E 003°42'0 0.0
2018-Feb-15 23:00N 51°28' E 003°42'0 0.0
2018-Feb-15 22:27N 51°28' E 003°42'0 0.0
2018-Feb-15 21:57N 51°28' E 003°42'0 0.0
2018-Feb-15 21:27N 51°28' E 003°42'0 0.0
2018-Feb-15 20:45N 51°28' E 003°42'0 0.0
2018-Feb-15 20:27N 51°28' E 003°42'0 0.0
2018-Feb-15 20:00N 51°28' E 003°42'0 0.0
2018-Feb-15 19:21N 51°28' E 003°42'0 0.0
2018-Feb-15 19:00N 51°28' E 003°42'0 0.0
2018-Feb-15 18:30N 51°28' E 003°42'0 0.0
2018-Feb-15 17:54N 51°28' E 003°42'0 0.0
2018-Feb-15 17:30N 51°28' E 003°42'0 0.0
2018-Feb-15 16:45N 51°28' E 003°42'0 0.0
2018-Feb-15 16:30N 51°28' E 003°42'0 0.0
2018-Feb-15 15:39N 51°28' E 003°42'0 0.0
2018-Feb-15 15:30N 51°28' E 003°42'0 0.0
2018-Feb-15 14:57N 51°28' E 003°42'0 0.0
2018-Feb-15 14:30N 51°28' E 003°42'0 0.0
2018-Feb-15 14:00N 51°28' E 003°42'0 0.0
2018-Feb-15 13:24N 51°28' E 003°42'0 0.0
2018-Feb-15 12:48N 51°28' E 003°42'0 0.0
2018-Feb-15 12:27N 51°28' E 003°42'0 0.0
2018-Feb-15 11:57N 51°28' E 003°42'0 0.0
2018-Feb-15 10:36N 51°28' E 003°42'0 0.0
2018-Feb-15 10:27N 51°28' E 003°42'0 0.0
2018-Feb-15 09:43N 51°28' E 003°42'0 0.0
2018-Feb-15 09:26N 51°28' E 003°42'0 0.0
2018-Feb-15 08:50N 51°28' E 003°42'0 0.0
2018-Feb-15 08:30N 51°28' E 003°42'1 1.0
2018-Feb-15 08:00N 51°28' E 003°42'2 4.7
2018-Feb-15 07:30N 51°26' E 003°42'612.5
2018-Feb-15 07:00N 51°21' E 003°48'714.1
2018-Feb-15 06:30N 51°25' E 003°58'510.5
2018-Feb-15 06:01N 51°22' E 004°05'510.6
2018-Feb-15 05:29N 51°22' E 004°14'2 4.2
2018-Feb-15 05:01N 51°21' E 004°16'0 0.0
2018-Feb-15 04:30N 51°21' E 004°16'0 0.0
2018-Feb-15 04:01N 51°21' E 004°16'0 0.0
2018-Feb-15 03:30N 51°21' E 004°16'0 0.0
2018-Feb-15 02:53N 51°21' E 004°16'0 0.0
2018-Feb-15 02:28N 51°21' E 004°16'0 0.0
2018-Feb-15 01:55N 51°21' E 004°16'0 0.0
2018-Feb-15 01:26N 51°21' E 004°16'0 0.0
2018-Feb-15 00:59N 51°21' E 004°16'0 0.0
2018-Feb-15 00:29N 51°21' E 004°16'0 0.0
2018-Feb-14 23:56N 51°21' E 004°16'0 0.0
2018-Feb-14 23:14N 51°21' E 004°16'0 0.0
2018-Feb-14 22:56N 51°21' E 004°16'0 0.0
2018-Feb-14 22:20N 51°21' E 004°16'0 0.0
2018-Feb-14 21:47N 51°21' E 004°16'0 0.0
2018-Feb-14 21:30N 51°21' E 004°16'0 0.0
2018-Feb-14 21:01N 51°21' E 004°16'0 0.0
2018-Feb-14 20:30N 51°21' E 004°16'0 0.0
2018-Feb-14 19:58N 51°21' E 004°16'0 0.0
2018-Feb-14 19:29N 51°21' E 004°16'0 0.0
2018-Feb-14 19:00N 51°21' E 004°16'0 0.0
2018-Feb-14 18:27N 51°21' E 004°16'0 0.0
2018-Feb-14 17:59N 51°21' E 004°16'0 0.0
2018-Feb-14 17:25N 51°21' E 004°16'0 0.0
2018-Feb-14 17:00N 51°21' E 004°16'0 0.0
2018-Feb-14 16:27N 51°21' E 004°16'0 0.0
2018-Feb-14 16:00N 51°21' E 004°16'0 0.0
2018-Feb-14 15:27N 51°21' E 004°16'0 0.0
2018-Feb-14 14:59N 51°21' E 004°16'0 0.0
2018-Feb-14 14:30N 51°21' E 004°16'0 0.0
2018-Feb-14 13:59N 51°21' E 004°16'0 0.0
2018-Feb-14 13:27N 51°21' E 004°16'0 0.0
2018-Feb-14 12:59N 51°21' E 004°16'0 0.0
2018-Feb-14 12:29N 51°21' E 004°16'0 0.0
2018-Feb-14 11:53N 51°21' E 004°16'0 0.0
2018-Feb-14 11:28N 51°21' E 004°16'0 0.0
2018-Feb-14 10:55N 51°21' E 004°16'0 0.0
2018-Feb-14 10:30N 51°21' E 004°16'0 0.0
2018-Feb-14 09:59N 51°21' E 004°16'0 0.0
2018-Feb-14 09:31N 51°21' E 004°16'0 0.0
2018-Feb-14 09:01N 51°21' E 004°16'0 0.0
2018-Feb-14 08:29N 51°21' E 004°16'0 0.0
2018-Feb-14 08:01N 51°21' E 004°16'0 0.0
2018-Feb-14 07:29N 51°21' E 004°16'0 0.0
2018-Feb-14 07:01N 51°21' E 004°16'0 0.0
2018-Feb-14 06:29N 51°21' E 004°16'0 0.0
2018-Feb-14 05:59N 51°21' E 004°16'0 0.0
2018-Feb-14 05:26N 51°21' E 004°16'0 0.0
2018-Feb-14 04:56N 51°21' E 004°16'0 0.0
2018-Feb-14 04:28N 51°21' E 004°16'0 0.0
2018-Feb-14 04:01N 51°21' E 004°16'0 0.0
2018-Feb-14 03:29N 51°21' E 004°16'0 0.0
2018-Feb-14 03:01N 51°21' E 004°16'0 0.0
2018-Feb-14 02:31N 51°21' E 004°16'0 0.0
2018-Feb-14 01:58N 51°21' E 004°16'0 0.5
2018-Feb-14 01:30N 51°21' E 004°16'2 3.6
2018-Feb-14 01:00N 51°22' E 004°14'4 8.2
2018-Feb-14 00:31N 51°22' E 004°07'611.3
2018-Feb-14 00:00N 51°26' E 004°00'713.6
2018-Feb-13 23:30N 51°21' E 003°53'713.4
2018-Feb-13 23:00N 51°23' E 003°43'510.0
2018-Feb-13 22:30N 51°25' E 003°36'510.9
2018-Feb-13 22:00N 51°25' E 003°27'713.3
2018-Feb-13 21:30N 51°24' E 003°16'714.8
2018-Feb-13 21:00N 51°24' E 003°05'714.0
2018-Feb-13 20:30N 51°22' E 002°54'612.3
2018-Feb-13 20:00N 51°21' E 002°44'510.2
2018-Feb-13 19:30N 51°22' E 002°36'5 9.8
2018-Feb-13 19:00N 51°21' E 002°28'510.0
2018-Feb-13 18:30N 51°20' E 002°20'510.5
2018-Feb-13 18:00N 51°19' E 002°12'4 8.7
2018-Feb-13 17:30N 51°20' E 002°05'4 8.6
2018-Feb-13 17:00N 51°23' E 002°00'5 9.9
2018-Feb-13 16:30N 51°27' E 001°55'5 9.8
2018-Feb-13 16:00N 51°31' E 001°51'3 6.3
2018-Feb-13 15:30N 51°32' E 001°46'2 3.2
2018-Feb-13 15:00N 51°31' E 001°43'3 6.4
2018-Feb-13 14:30N 51°32' E 001°48'3 6.2
2018-Feb-13 14:00N 51°33' E 001°53'3 5.4
2018-Feb-13 13:30N 51°34' E 001°57'1 2.6
2018-Feb-13 13:00N 51°34' E 001°59'5 9.7
2018-Feb-13 12:30N 51°32' E 001°52'5 9.7
2018-Feb-13 12:00N 51°31' E 001°44'5 9.4
2018-Feb-13 11:30N 51°29' E 001°37'4 9.0
2018-Feb-13 11:00N 51°27' E 001°31'3 5.8
2018-Feb-13 10:30N 51°28' E 001°26'5 9.3
2018-Feb-13 10:00N 51°29' E 001°19'5 9.3
2018-Feb-13 09:30N 51°29' E 001°11'5 9.6
2018-Feb-13 09:00N 51°30' E 001°04'611.3
2018-Feb-13 08:30N 51°29' E 000°55'713.2
2018-Feb-13 08:00N 51°30' E 000°44'612.7
2018-Feb-13 07:30N 51°30' E 000°34'5 9.2
2018-Feb-13 07:01N 51°29' E 000°27'4 8.9
2018-Feb-13 06:31N 51°27' E 000°21'1 1.3
2018-Feb-13 06:00N 51°28' E 000°20'0 0.0
2018-Feb-13 05:30N 51°28' E 000°20'0 0.0
2018-Feb-13 05:00N 51°28' E 000°20'0 0.0
2018-Feb-13 04:30N 51°28' E 000°20'0 0.0
2018-Feb-13 04:00N 51°28' E 000°20'0 0.0
2018-Feb-13 03:31N 51°28' E 000°20'0 0.0
2018-Feb-13 03:00N 51°28' E 000°20'0 0.0
2018-Feb-13 02:30N 51°28' E 000°20'0 0.0
2018-Feb-13 02:00N 51°28' E 000°20'0 0.0
2018-Feb-13 01:30N 51°28' E 000°20'0 0.0
2018-Feb-13 01:00N 51°28' E 000°20'0 0.0
2018-Feb-13 00:30N 51°28' E 000°20'0 0.0
2018-Feb-13 00:00N 51°28' E 000°20'0 0.0
2018-Feb-12 23:31N 51°28' E 000°20'0 0.0
2018-Feb-12 23:00N 51°28' E 000°20'0 0.0
2018-Feb-12 22:31N 51°28' E 000°20'0 0.0
2018-Feb-12 22:00N 51°28' E 000°20'0 0.0
2018-Feb-12 21:30N 51°28' E 000°20'0 0.0
2018-Feb-12 21:00N 51°28' E 000°20'0 0.5
2018-Feb-12 20:31N 51°27' E 000°20'4 7.7
2018-Feb-12 20:00N 51°27' E 000°26'510.1
2018-Feb-12 19:30N 51°30' E 000°33'714.0
2018-Feb-12 19:00N 51°30' E 000°44'815.7
2018-Feb-12 18:30N 51°29' E 000°56'612.6
2018-Feb-12 18:00N 51°30' E 001°06'510.5
2018-Feb-12 17:30N 51°29' E 001°15'611.4
2018-Feb-12 17:00N 51°29' E 001°24'4 8.3
2018-Feb-12 16:30N 51°29' E 001°31'3 5.9
2018-Feb-12 16:00N 51°26' E 001°31'2 4.7
2018-Feb-12 15:30N 51°24' E 001°33'2 3.1
2018-Feb-12 15:00N 51°23' E 001°35'3 5.2
2018-Feb-12 14:30N 51°20' E 001°36'3 5.8
2018-Feb-12 14:00N 51°18' E 001°38'2 4.4
2018-Feb-12 13:30N 51°16' E 001°39'2 4.9
2018-Feb-12 13:00N 51°18' E 001°38'2 4.6
2018-Feb-12 12:31N 51°16' E 001°39'3 5.9
2018-Feb-12 12:01N 51°13' E 001°40'4 7.1
2018-Feb-12 11:31N 51°10' E 001°37'3 6.3
2018-Feb-12 11:01N 51°07' E 001°39'611.0
2018-Feb-12 10:30N 51°04' E 001°46'4 7.0
2018-Feb-12 10:00N 51°03' E 001°51'510.5
2018-Feb-12 09:30N 51°03' E 001°59'712.8
2018-Feb-12 09:00N 51°03' E 002°10'2 2.3
2018-Feb-12 08:04N 51°00' E 002°11'0 0.0
2018-Feb-12 08:00N 51°00' E 002°11'0 0.0
2018-Feb-12 07:30N 51°00' E 002°11'0 0.0
2018-Feb-12 06:57N 51°00' E 002°11'0 0.0
2018-Feb-12 06:30N 51°00' E 002°11'0 0.0
2018-Feb-12 05:58N 51°00' E 002°11'0 0.0
2018-Feb-12 05:28N 51°00' E 002°11'0 0.0
2018-Feb-12 04:55N 51°00' E 002°11'0 0.0
2018-Feb-12 04:21N 51°00' E 002°11'0 0.0
2018-Feb-12 04:00N 51°00' E 002°11'0 0.0
2018-Feb-12 03:29N 51°00' E 002°11'0 0.0
2018-Feb-12 03:01N 51°00' E 002°11'0 0.0
2018-Feb-12 02:27N 51°00' E 002°11'0 0.0
2018-Feb-12 02:00N 51°00' E 002°11'0 0.0
2018-Feb-12 01:30N 51°00' E 002°11'0 0.0
2018-Feb-12 01:00N 51°00' E 002°11'0 0.0
2018-Feb-12 00:30N 51°00' E 002°11'0 0.0
2018-Feb-11 23:51N 51°00' E 002°11'0 0.0
2018-Feb-11 23:30N 51°00' E 002°11'0 0.0
2018-Feb-11 22:59N 51°00' E 002°11'  

Dump ship's entire track history